Terminal Aerodrome Forecast
Issued by NWS Kansas City/Pleasant Hill, MO

Home | Current Version | Previous Version | Text Only | Print | Product List | Glossary Off
Versions: 1 2 3 4 5 6 7 8 9 10 11 12 13 14 15 16 17 18 19 20 21 22 23 24

745
FTUS43 KEAX 261731
TAFMCI
TAF
KMCI 261731Z 2618/2718 16011KT P6SM VCTS SCT050CB BKN100
     FM262000 17014G22KT 5SM -TSRA BR BKN040CB
      TEMPO 2622/2702 VRB20G35KT 2SM TSRA BR BKN035CB
     FM270600 15010KT P6SM VCTS BKN060CB
     FM271100 17012KT P6SM OVC012=

USA.gov is the U.S. government's official web portal to all federal, state and local government web resources and services.